Weather History for Three Rivers, MI

Change the Weather History Date:

Saturday, March 10, 2012

  Actual Average Record
Temperature  
Mean Temperature 36 °F -  
Max Temperature 51 °F 44 °F 65 °F (1977)
Min Temperature 22 °F 25 °F 2 °F (1972)
Degree Days  
Heating Degree Days 28    
Moisture  
Dew Point 21 °F    
Average Humidity 60    
Maximum Humidity 86    
Minimum Humidity 39    
Precipitation  
Precipitation 0.00 in - - ()
Sea Level Pressure  
Sea Level Pressure 30.43 in    
Wind  
Wind Speed 7 mph (South)    
Max Wind Speed 22 mph    
Max Gust Speed 28 mph    
Visibility 10 miles    
Events      
Averages and records for this station are not official NWS values.
T = Trace of Precipitation, MM = Missing Value Source: NWS Daily Summary

Daily Weather History Graph

Daily Weather History Graph

Search for Another Location

Airport:

Trip Planner

Search our weather history database for the weather conditions in past years. The results will help you decide how hot, cold, wet, or windy it might be!

Date:

Astronomy

Mar. 10, 2012 Rise Set
Actual Time 7:01 AM EST 6:43 PM EST
Civil Twilight 6:34 AM EST 7:11 PM EST
Nautical Twilight 6:01 AM EST 7:43 PM EST
Astronomical Twilight 5:29 AM EST 8:16 PM EST
Moon 9:59 PM EST (3/10) 7:53 AM EST (3/10)
Length of Visible Light 12h 37m
Length of Day
11h 41m
Waning Gibbous, 93% of the Moon is Illuminated
Mar 10
Waning Gibbous
Mar 14
Last Quarter
Mar 22
New
Mar 30
First Quarter
Apr 6
Full

Hourly Weather History & Observations

Time (EST) Temp. Windchill Dew Point Humidity Pressure Visibility Wind Dir Wind Speed Gust Speed Precip Events Conditions
12:14 AM 23.7 °F 19.3 °F 18.3 °F 80% 30.52 in 10.0 mi North 3.5 mph - N/A   Clear
12:35 AM 24.1 °F - 17.6 °F 76% 30.52 in 10.0 mi Calm Calm - N/A   Clear
12:55 AM 22.8 °F - 17.1 °F 79% 30.52 in 10.0 mi Calm Calm - N/A   Clear
1:14 AM 23.9 °F - 16.7 °F 74% 30.51 in 10.0 mi Calm Calm - N/A   Clear
1:35 AM 22.8 °F - 17.4 °F 80% 30.51 in 10.0 mi Calm Calm - N/A   Mostly Cloudy
1:54 AM 22.6 °F - 17.6 °F 81% 30.50 in 10.0 mi Calm Calm - N/A   Scattered Clouds
2:14 AM 22.5 °F - 17.8 °F 82% 30.51 in 10.0 mi Calm Calm - N/A   Clear
2:35 AM 22.6 °F - 17.6 °F 81% 30.51 in 10.0 mi Calm Calm - N/A   Clear
2:54 AM 23.0 °F - 17.2 °F 79% 30.52 in 10.0 mi Calm Calm - N/A   Scattered Clouds
3:14 AM 22.3 °F - 18.7 °F 86% 30.51 in 10.0 mi Calm Calm - N/A   Clear
3:35 AM 23.9 °F - 19.6 °F 84% 30.51 in 10.0 mi Calm Calm - N/A   Clear
3:54 AM 24.6 °F 20.3 °F 18.5 °F 78% 30.51 in 10.0 mi SSE 3.5 mph - N/A   Clear
4:15 AM 24.8 °F 19.1 °F 18.5 °F 77% 30.50 in 10.0 mi South 4.6 mph - N/A   Clear
4:35 AM 24.8 °F 19.1 °F 19.2 °F 79% 30.51 in 10.0 mi South 4.6 mph - N/A   Clear
4:54 AM 25.2 °F 18.3 °F 18.0 °F 74% 30.51 in 10.0 mi SSE 5.8 mph - N/A   Clear
5:15 AM 25.2 °F 18.3 °F 17.8 °F 74% 30.51 in 10.0 mi SSE 5.8 mph - N/A   Clear
5:34 AM 25.3 °F 18.5 °F 17.6 °F 72% 30.51 in 10.0 mi SSE 5.8 mph - N/A   Clear
5:54 AM 25.2 °F 18.3 °F 18.0 °F 74% 30.51 in 10.0 mi SSE 5.8 mph - N/A   Clear
6:15 AM 25.3 °F 18.5 °F 17.8 °F 73% 30.51 in 10.0 mi SSE 5.8 mph - N/A   Clear
6:34 AM 25.3 °F 18.5 °F 17.4 °F 72% 30.49 in 10.0 mi SE 5.8 mph - N/A   Clear
6:54 AM 25.2 °F 17.3 °F 17.1 °F 71% 30.49 in 10.0 mi SSE 6.9 mph - N/A   Clear
7:15 AM 25.2 °F 17.3 °F 16.7 °F 70% 30.49 in 10.0 mi SSE 6.9 mph - N/A   Clear
7:34 AM 25.3 °F 15.3 °F 16.7 °F 70% 30.48 in 10.0 mi SSE 10.4 mph - N/A   Clear
7:54 AM 26.2 °F 17.1 °F 17.2 °F 69% 30.48 in 10.0 mi SE 9.2 mph - N/A   Clear
8:15 AM 27.0 °F 18.0 °F 17.4 °F 67% 30.48 in 10.0 mi SSE 9.2 mph - N/A   Clear
8:34 AM 27.9 °F 19.1 °F 18.1 °F 67% 30.49 in 10.0 mi SSE 9.2 mph 17.3 mph N/A   Clear
8:55 AM 29.1 °F 18.9 °F 18.1 °F 64% 30.48 in 10.0 mi SSE 12.7 mph 18.4 mph N/A   Clear
9:14 AM 29.7 °F 18.2 °F 18.3 °F 63% 30.48 in 10.0 mi SSE 16.1 mph - N/A   Clear
9:35 AM 31.5 °F 20.1 °F 19.2 °F 61% 30.47 in 10.0 mi South 17.3 mph 21.9 mph N/A   Clear
9:55 AM 32.0 °F 21.2 °F 19.0 °F 59% 30.47 in 10.0 mi South 16.1 mph 23.0 mph N/A   Clear
10:14 AM 32.4 °F 21.7 °F 18.9 °F 58% 30.47 in 10.0 mi South 16.1 mph 21.9 mph N/A   Clear
10:35 AM 33.6 °F 24.6 °F 19.2 °F 56% 30.47 in 10.0 mi SSE 12.7 mph 21.9 mph N/A   Clear
10:54 AM 34.7 °F 24.3 °F 20.3 °F 56% 30.45 in 10.0 mi South 17.3 mph 24.2 mph N/A   Clear
11:14 AM 36.0 °F 25.6 °F 21.0 °F 55% 30.44 in 10.0 mi South 18.4 mph 21.9 mph N/A   Clear
11:35 AM 36.3 °F 26.4 °F 20.7 °F 53% 30.44 in 10.0 mi South 17.3 mph - N/A   Clear
11:54 AM 37.9 °F 28.9 °F 21.9 °F 53% 30.43 in 10.0 mi South 16.1 mph 21.9 mph N/A   Clear
12:14 PM 38.8 °F 30.0 °F 21.2 °F 49% 30.42 in 10.0 mi South 16.1 mph - N/A   Clear
12:34 PM 40.6 °F 32.0 °F 22.3 °F 48% 30.40 in 10.0 mi South 17.3 mph 20.7 mph N/A   Clear
12:54 PM 42.1 °F 33.3 °F 22.3 °F 45% 30.39 in 10.0 mi South 19.6 mph 24.2 mph N/A   Clear
1:15 PM 43.7 °F 35.7 °F 21.7 °F 42% 30.38 in 10.0 mi South 18.4 mph 21.9 mph N/A   Clear
1:34 PM 44.8 °F 36.6 °F 22.6 °F 42% 30.37 in 10.0 mi SSW 20.7 mph 26.5 mph N/A   Clear
1:54 PM 45.7 °F 38.6 °F 22.6 °F 40% 30.35 in 10.0 mi SSW 17.3 mph 27.6 mph N/A   Clear
2:15 PM 47.3 °F - 23.5 °F 39% 30.35 in 10.0 mi SSW 21.9 mph 27.6 mph N/A   Clear
2:34 PM 47.8 °F - 23.9 °F 39% 30.34 in 10.0 mi South 20.7 mph 26.5 mph N/A   Clear
2:55 PM 49.1 °F - 25.3 °F 40% 30.32 in 10.0 mi South 20.7 mph 24.2 mph N/A   Clear
3:14 PM 49.8 °F - 25.7 °F 39% 30.32 in 10.0 mi SSW 19.6 mph 24.2 mph N/A   Clear
3:34 PM 50.5 °F - 26.1 °F 39% 30.31 in 10.0 mi SSW 16.1 mph 24.2 mph N/A   Clear
3:55 PM 51.4 °F - 27.3 °F 39% 30.30 in 10.0 mi SSW 18.4 mph 23.0 mph N/A   Clear
4:14 PM 51.8 °F - 27.7 °F 39% 30.30 in 10.0 mi SSW 16.1 mph 19.6 mph N/A   Clear
4:34 PM 51.4 °F - 27.7 °F 40% 30.29 in 10.0 mi SSW 17.3 mph 24.2 mph N/A   Clear
4:55 PM 51.8 °F - 28.2 °F 40% 30.28 in 10.0 mi SSW 17.3 mph 25.3 mph N/A   Clear
5:15 PM 51.8 °F - 28.2 °F 40% 30.27 in 10.0 mi SSW 17.3 mph 24.2 mph N/A   Clear
5:34 PM 51.3 °F - 28.4 °F 41% 30.27 in 10.0 mi SSW 17.3 mph 21.9 mph N/A   Clear
5:55 PM 50.9 °F - 28.6 °F 42% 30.27 in 10.0 mi South 16.1 mph 20.7 mph N/A   Clear
6:14 PM 50.4 °F - 28.6 °F 43% 30.27 in 10.0 mi SSW 12.7 mph 20.7 mph N/A   Clear
6:35 PM 48.9 °F - 29.1 °F 46% 30.27 in 10.0 mi SSW 10.4 mph - N/A   Clear
6:55 PM 47.7 °F - 29.3 °F 49% 30.26 in 10.0 mi South 9.2 mph - N/A   Clear
7:14 PM 46.4 °F 41.1 °F 29.8 °F 53% 30.25 in 10.0 mi South 11.5 mph - N/A   Clear
7:35 PM 46.2 °F 40.8 °F 30.0 °F 53% 30.25 in 10.0 mi South 11.5 mph - N/A   Clear
7:54 PM 45.5 °F 39.6 °F 30.2 °F 55% 30.25 in 10.0 mi South 12.7 mph - N/A   Clear
8:14 PM 45.3 °F 39.0 °F 30.0 °F 55% 30.25 in 10.0 mi South 13.8 mph - N/A   Clear
8:35 PM 44.4 °F 38.2 °F 30.0 °F 57% 30.25 in 10.0 mi South 12.7 mph - N/A   Clear
8:55 PM 43.9 °F 37.9 °F 30.2 °F 59% 30.25 in 10.0 mi South 11.5 mph - N/A   Clear
9:14 PM 43.7 °F 37.7 °F 30.2 °F 59% 30.25 in 10.0 mi South 11.5 mph - N/A   Clear
9:35 PM 43.2 °F 36.6 °F 30.2 °F 60% 30.26 in 10.0 mi South 12.7 mph - N/A   Clear
9:54 PM 42.8 °F 36.6 °F 30.0 °F 61% 30.26 in 10.0 mi SSW 11.5 mph - N/A   Clear
10:15 PM 43.2 °F 37.0 °F 29.5 °F 59% 30.26 in 10.0 mi SSW 11.5 mph - N/A   Clear
10:35 PM 43.0 °F 37.2 °F 29.3 °F 59% 30.27 in 10.0 mi SSW 10.4 mph - N/A   Clear
10:54 PM 42.4 °F 37.0 °F 29.1 °F 59% 30.27 in 10.0 mi SSW 9.2 mph - N/A   Clear
11:15 PM 40.3 °F 34.9 °F 28.6 °F 63% 30.27 in 10.0 mi SSW 8.1 mph - N/A   Clear
11:54 PM 40.1 °F 34.7 °F 28.8 °F 64% 30.27 in 10.0 mi SSW 8.1 mph - N/A   Clear